sensor_id;sensor_type;location;lat;lon;timestamp;pressure;altitude;pressure_sealevel;temperature
53667;BMP280;39568;51.026;5.468;2022-08-20T00:01:03;100844.06;;;19.67
53667;BMP280;39568;51.026;5.468;2022-08-20T00:03:34;100838.44;;;19.73
53667;BMP280;39568;51.026;5.468;2022-08-20T00:06:04;100831.22;;;19.75
53667;BMP280;39568;51.026;5.468;2022-08-20T00:08:32;100838.09;;;19.69
53667;BMP280;39568;51.026;5.468;2022-08-20T00:11:00;100832.34;;;19.65
53667;BMP280;39568;51.026;5.468;2022-08-20T00:13:32;100827.50;;;19.71
53667;BMP280;39568;51.026;5.468;2022-08-20T00:16:00;100830.56;;;19.67
53667;BMP280;39568;51.026;5.468;2022-08-20T00:18:28;100834.56;;;19.59
53667;BMP280;39568;51.026;5.468;2022-08-20T00:20:55;100827.44;;;19.46
53667;BMP280;39568;51.026;5.468;2022-08-20T00:23:23;100829.03;;;19.49
53667;BMP280;39568;51.026;5.468;2022-08-20T00:25:50;100832.28;;;19.48
53667;BMP280;39568;51.026;5.468;2022-08-20T00:28:19;100835.31;;;19.44
53667;BMP280;39568;51.026;5.468;2022-08-20T00:30:46;100833.91;;;19.43
53667;BMP280;39568;51.026;5.468;2022-08-20T00:33:17;100826.38;;;19.42
53667;BMP280;39568;51.026;5.468;2022-08-20T00:35:48;100830.69;;;19.37
53667;BMP280;39568;51.026;5.468;2022-08-20T00:38:16;100828.53;;;19.36
53667;BMP280;39568;51.026;5.468;2022-08-20T00:40:48;100831.78;;;19.34
53667;BMP280;39568;51.026;5.468;2022-08-20T00:43:31;100831.97;;;19.36
53667;BMP280;39568;51.026;5.468;2022-08-20T00:46:03;100833.03;;;19.33
53667;BMP280;39568;51.026;5.468;2022-08-20T00:48:33;100836.31;;;19.32
53667;BMP280;39568;51.026;5.468;2022-08-20T00:51:03;100837.38;;;19.28
53667;BMP280;39568;51.026;5.468;2022-08-20T00:53:32;100842.59;;;19.26
53667;BMP280;39568;51.026;5.468;2022-08-20T00:56:00;100834.31;;;19.24
53667;BMP280;39568;51.026;5.468;2022-08-20T00:58:29;100842.59;;;19.26
53667;BMP280;39568;51.026;5.468;2022-08-20T01:00:58;100842.59;;;19.26
53667;BMP280;39568;51.026;5.468;2022-08-20T01:03:26;100841.00;;;19.23
53667;BMP280;39568;51.026;5.468;2022-08-20T01:05:53;100843.34;;;19.19
53667;BMP280;39568;51.026;5.468;2022-08-20T01:08:22;100836.84;;;19.22
53667;BMP280;39568;51.026;5.468;2022-08-20T01:10:59;100838.88;;;19.14
53667;BMP280;39568;51.026;5.468;2022-08-20T01:13:36;100842.63;;;19.11
53667;BMP280;39568;51.026;5.468;2022-08-20T01:16:10;100839.75;;;19.09
53667;BMP280;39568;51.026;5.468;2022-08-20T01:18:40;100835.81;;;19.03
53667;BMP280;39568;51.026;5.468;2022-08-20T01:21:07;100843.19;;;19.02
53667;BMP280;39568;51.026;5.468;2022-08-20T01:23:41;100837.28;;;18.96
53667;BMP280;39568;51.026;5.468;2022-08-20T01:26:12;100840.00;;;18.96
53667;BMP280;39568;51.026;5.468;2022-08-20T01:28:44;100845.19;;;18.94
53667;BMP280;39568;51.026;5.468;2022-08-20T01:31:15;100842.34;;;18.92
53667;BMP280;39568;51.026;5.468;2022-08-20T01:33:45;100837.28;;;18.89
53667;BMP280;39568;51.026;5.468;2022-08-20T01:36:15;100834.25;;;18.85
53667;BMP280;39568;51.026;5.468;2022-08-20T01:38:43;100843.22;;;18.87
53667;BMP280;39568;51.026;5.468;2022-08-20T01:41:29;100844.47;;;18.86
53667;BMP280;39568;51.026;5.468;2022-08-20T01:43:59;100842.34;;;18.77
53667;BMP280;39568;51.026;5.468;2022-08-20T01:46:29;100853.84;;;18.78
53667;BMP280;39568;51.026;5.468;2022-08-20T01:48:57;100847.75;;;18.77
53667;BMP280;39568;51.026;5.468;2022-08-20T01:51:28;100843.25;;;18.72
53667;BMP280;39568;51.026;5.468;2022-08-20T01:53:57;100850.97;;;18.68
53667;BMP280;39568;51.026;5.468;2022-08-20T01:56:29;100849.53;;;18.67
53667;BMP280;39568;51.026;5.468;2022-08-20T01:59:05;100855.66;;;18.68
53667;BMP280;39568;51.026;5.468;2022-08-20T02:01:34;100854.91;;;18.67
53667;BMP280;39568;51.026;5.468;2022-08-20T02:04:04;100863.56;;;18.66
53667;BMP280;39568;51.026;5.468;2022-08-20T02:06:34;100848.81;;;18.59
53667;BMP280;39568;51.026;5.468;2022-08-20T02:09:03;100843.06;;;18.55
53667;BMP280;39568;51.026;5.468;2022-08-20T02:11:33;100852.75;;;18.58
53667;BMP280;39568;51.026;5.468;2022-08-20T02:14:02;100849.91;;;18.56
53667;BMP280;39568;51.026;5.468;2022-08-20T02:16:35;100856.00;;;18.49
53667;BMP280;39568;51.026;5.468;2022-08-20T02:19:20;100853.13;;;18.47
53667;BMP280;39568;51.026;5.468;2022-08-20T02:21:50;100847.34;;;18.43
53667;BMP280;39568;51.026;5.468;2022-08-20T02:24:19;100842.34;;;18.39
53667;BMP280;39568;51.026;5.468;2022-08-20T02:26:48;100849.91;;;18.41
53667;BMP280;39568;51.026;5.468;2022-08-20T02:29:15;100847.56;;;18.37
53667;BMP280;39568;51.026;5.468;2022-08-20T02:31:44;100854.56;;;18.33
53667;BMP280;39568;51.026;5.468;2022-08-20T02:34:13;100851.66;;;18.31
53667;BMP280;39568;51.026;5.468;2022-08-20T02:36:40;100862.06;;;18.27
53667;BMP280;39568;51.026;5.468;2022-08-20T02:39:09;100858.69;;;18.26
53667;BMP280;39568;51.026;5.468;2022-08-20T02:41:37;100854.69;;;18.20
53667;BMP280;39568;51.026;5.468;2022-08-20T02:44:09;100851.63;;;18.08
53667;BMP280;39568;51.026;5.468;2022-08-20T02:46:37;100858.97;;;18.08
53667;BMP280;39568;51.026;5.468;2022-08-20T02:49:06;100856.97;;;18.01
53667;BMP280;39568;51.026;5.468;2022-08-20T02:51:32;100866.31;;;18.00
53667;BMP280;39568;51.026;5.468;2022-08-20T02:54:00;100856.63;;;17.97
53667;BMP280;39568;51.026;5.468;2022-08-20T02:56:27;100848.75;;;17.91
53667;BMP280;39568;51.026;5.468;2022-08-20T02:59:01;100856.81;;;17.91
53667;BMP280;39568;51.026;5.468;2022-08-20T03:01:44;100857.50;;;17.92
53667;BMP280;39568;51.026;5.468;2022-08-20T03:04:19;100857.34;;;17.90
53667;BMP280;39568;51.026;5.468;2022-08-20T03:06:46;100857.16;;;17.88
53667;BMP280;39568;51.026;5.468;2022-08-20T03:09:12;100866.47;;;17.87
53667;BMP280;39568;51.026;5.468;2022-08-20T03:11:39;100872.75;;;17.89
53667;BMP280;39568;51.026;5.468;2022-08-20T03:14:08;100868.47;;;17.86
53667;BMP280;39568;51.026;5.468;2022-08-20T03:16:36;100867.72;;;17.86
53667;BMP280;39568;51.026;5.468;2022-08-20T03:19:05;100870.38;;;17.78
53667;BMP280;39568;51.026;5.468;2022-08-20T03:21:32;100868.03;;;17.75
53667;BMP280;39568;51.026;5.468;2022-08-20T03:23:59;100870.16;;;17.68
53667;BMP280;39568;51.026;5.468;2022-08-20T03:26:26;100874.44;;;17.56
53667;BMP280;39568;51.026;5.468;2022-08-20T03:28:53;100875.47;;;17.53
53667;BMP280;39568;51.026;5.468;2022-08-20T03:31:22;100877.25;;;17.51
53667;BMP280;39568;51.026;5.468;2022-08-20T03:33:49;100870.78;;;17.46
53667;BMP280;39568;51.026;5.468;2022-08-20T03:36:17;100872.22;;;17.47
53667;BMP280;39568;51.026;5.468;2022-08-20T03:38:51;100868.94;;;17.41
53667;BMP280;39568;51.026;5.468;2022-08-20T03:41:18;100874.34;;;17.41
53667;BMP280;39568;51.026;5.468;2022-08-20T03:43:46;100877.53;;;17.32
53667;BMP280;39568;51.026;5.468;2022-08-20T03:46:15;100873.72;;;17.28
53667;BMP280;39568;51.026;5.468;2022-08-20T03:48:42;100878.19;;;17.25
53667;BMP280;39568;51.026;5.468;2022-08-20T03:51:09;100881.41;;;17.24
53667;BMP280;39568;51.026;5.468;2022-08-20T03:53:37;100878.72;;;17.24
53667;BMP280;39568;51.026;5.468;2022-08-20T03:56:05;100879.06;;;17.20
53667;BMP280;39568;51.026;5.468;2022-08-20T03:58:35;100875.63;;;17.20
53667;BMP280;39568;51.026;5.468;2022-08-20T04:01:04;100877.94;;;17.16
53667;BMP280;39568;51.026;5.468;2022-08-20T04:03:31;100873.06;;;17.14
53667;BMP280;39568;51.026;5.468;2022-08-20T04:05:58;100880.25;;;17.12
53667;BMP280;39568;51.026;5.468;2022-08-20T04:08:28;100880.75;;;17.10
53667;BMP280;39568;51.026;5.468;2022-08-20T04:10:57;100888.66;;;17.08
53667;BMP280;39568;51.026;5.468;2022-08-20T04:13:25;100887.22;;;17.07
53667;BMP280;39568;51.026;5.468;2022-08-20T04:15:52;100877.00;;;17.06
53667;BMP280;39568;51.026;5.468;2022-08-20T04:18:22;100895.63;;;17.04
53667;BMP280;39568;51.026;5.468;2022-08-20T04:20:51;100891.28;;;17.01
53667;BMP280;39568;51.026;5.468;2022-08-20T04:23:18;100898.44;;;16.98
53667;BMP280;39568;51.026;5.468;2022-08-20T04:25:45;100895.94;;;17.00
53667;BMP280;39568;51.026;5.468;2022-08-20T04:28:16;100891.28;;;17.01
53667;BMP280;39568;51.026;5.468;2022-08-20T04:30:50;100891.63;;;16.97
53667;BMP280;39568;51.026;5.468;2022-08-20T04:33:18;100902.38;;;16.97
53667;BMP280;39568;51.026;5.468;2022-08-20T04:35:45;100896.63;;;16.93
53667;BMP280;39568;51.026;5.468;2022-08-20T04:38:14;100888.88;;;16.89
53667;BMP280;39568;51.026;5.468;2022-08-20T04:40:48;100905.09;;;16.84
53667;BMP280;39568;51.026;5.468;2022-08-20T04:43:28;100905.25;;;16.78
53667;BMP280;39568;51.026;5.468;2022-08-20T04:45:56;100912.63;;;16.78
53667;BMP280;39568;51.026;5.468;2022-08-20T04:48:25;100915.47;;;16.80
53667;BMP280;39568;51.026;5.468;2022-08-20T04:50:54;100929.44;;;16.78
53667;BMP280;39568;51.026;5.468;2022-08-20T04:53:27;100924.97;;;16.81
53667;BMP280;39568;51.026;5.468;2022-08-20T04:55:59;100934.66;;;16.84
53667;BMP280;39568;51.026;5.468;2022-08-20T04:58:30;100935.94;;;16.83
53667;BMP280;39568;51.026;5.468;2022-08-20T05:01:00;100937.19;;;16.82
53667;BMP280;39568;51.026;5.468;2022-08-20T05:03:28;100932.81;;;16.79
53667;BMP280;39568;51.026;5.468;2022-08-20T05:05:57;100943.00;;;16.73
53667;BMP280;39568;51.026;5.468;2022-08-20T05:08:28;100932.03;;;16.71
53667;BMP280;39568;51.026;5.468;2022-08-20T05:10:56;100935.06;;;16.67
53667;BMP280;39568;51.026;5.468;2022-08-20T05:13:24;100936.19;;;16.72
53667;BMP280;39568;51.026;5.468;2022-08-20T05:15:57;100940.09;;;16.71
53667;BMP280;39568;51.026;5.468;2022-08-20T05:18:29;100947.56;;;16.65
53667;BMP280;39568;51.026;5.468;2022-08-20T05:20:57;100944.50;;;16.61
53667;BMP280;39568;51.026;5.468;2022-08-20T05:23:30;100950.38;;;16.59
53667;BMP280;39568;51.026;5.468;2022-08-20T05:25:57;100942.13;;;16.57
53667;BMP280;39568;51.026;5.468;2022-08-20T05:28:27;100943.50;;;16.51
53667;BMP280;39568;51.026;5.468;2022-08-20T05:30:59;100951.56;;;16.51
53667;BMP280;39568;51.026;5.468;2022-08-20T05:33:27;100952.78;;;16.50
53667;BMP280;39568;51.026;5.468;2022-08-20T05:35:55;100952.78;;;16.50
53667;BMP280;39568;51.026;5.468;2022-08-20T05:38:27;100960.84;;;16.50
53667;BMP280;39568;51.026;5.468;2022-08-20T05:40:55;100969.63;;;16.50
53667;BMP280;39568;51.026;5.468;2022-08-20T05:43:23;100968.50;;;16.46
53667;BMP280;39568;51.026;5.468;2022-08-20T05:45:50;100968.91;;;16.50
53667;BMP280;39568;51.026;5.468;2022-08-20T05:48:23;100965.38;;;16.55
53667;BMP280;39568;51.026;5.468;2022-08-20T05:50:53;100965.59;;;16.44
53667;BMP280;39568;51.026;5.468;2022-08-20T05:53:22;100973.47;;;16.42
53667;BMP280;39568;51.026;5.468;2022-08-20T05:55:50;100980.47;;;16.45
53667;BMP280;39568;51.026;5.468;2022-08-20T05:58:19;100982.38;;;16.37
53667;BMP280;39568;51.026;5.468;2022-08-20T06:00:47;100980.28;;;16.43
53667;BMP280;39568;51.026;5.468;2022-08-20T06:03:14;100990.41;;;16.50
53667;BMP280;39568;51.026;5.468;2022-08-20T06:06:02;100985.34;;;16.46
53667;BMP280;39568;51.026;5.468;2022-08-20T06:08:30;100987.72;;;16.50
53667;BMP280;39568;51.026;5.468;2022-08-20T06:10:57;100984.63;;;16.46
53667;BMP280;39568;51.026;5.468;2022-08-20T06:13:24;100989.28;;;16.45
53667;BMP280;39568;51.026;5.468;2022-08-20T06:15:52;100992.69;;;16.46
53667;BMP280;39568;51.026;5.468;2022-08-20T06:18:18;100992.47;;;16.44
53667;BMP280;39568;51.026;5.468;2022-08-20T06:20:45;100992.34;;;16.49
53667;BMP280;39568;51.026;5.468;2022-08-20T06:23:16;100995.88;;;16.44
53667;BMP280;39568;51.026;5.468;2022-08-20T06:25:44;100994.31;;;16.49
53667;BMP280;39568;51.026;5.468;2022-08-20T06:28:12;100994.13;;;16.34
53667;BMP280;39568;51.026;5.468;2022-08-20T06:30:42;100999.50;;;16.34
53667;BMP280;39568;51.026;5.468;2022-08-20T06:33:14;100988.34;;;16.43
53667;BMP280;39568;51.026;5.468;2022-08-20T06:35:43;100993.72;;;16.30
53667;BMP280;39568;51.026;5.468;2022-08-20T06:38:11;100989.88;;;16.51
53667;BMP280;39568;51.026;5.468;2022-08-20T06:40:40;100989.03;;;16.56
53667;BMP280;39568;51.026;5.468;2022-08-20T06:43:10;100978.81;;;16.55
53667;BMP280;39568;51.026;5.468;2022-08-20T06:45:39;100990.78;;;16.54
53667;BMP280;39568;51.026;5.468;2022-08-20T06:48:08;100988.06;;;16.67
53667;BMP280;39568;51.026;5.468;2022-08-20T06:50:39;100989.47;;;16.47
53667;BMP280;39568;51.026;5.468;2022-08-20T06:53:07;100989.03;;;16.56
53667;BMP280;39568;51.026;5.468;2022-08-20T06:55:35;100987.38;;;16.66
53667;BMP280;39568;51.026;5.468;2022-08-20T06:58:07;100989.31;;;16.66
53667;BMP280;39568;51.026;5.468;2022-08-20T07:00:36;100992.16;;;16.81
53667;BMP280;39568;51.026;5.468;2022-08-20T07:03:03;100992.75;;;16.87
53667;BMP280;39568;51.026;5.468;2022-08-20T07:05:32;101000.63;;;16.85
53667;BMP280;39568;51.026;5.468;2022-08-20T07:07:59;101009.75;;;16.69
53667;BMP280;39568;51.026;5.468;2022-08-20T07:10:27;101001.06;;;16.76
53667;BMP280;39568;51.026;5.468;2022-08-20T07:12:54;100999.53;;;16.67
53667;BMP280;39568;51.026;5.468;2022-08-20T07:15:25;100997.28;;;16.92
53667;BMP280;39568;51.026;5.468;2022-08-20T07:17:54;100993.63;;;16.82
53667;BMP280;39568;51.026;5.468;2022-08-20T07:20:23;100993.38;;;16.93
53667;BMP280;39568;51.026;5.468;2022-08-20T07:22:51;100996.91;;;16.88
53667;BMP280;39568;51.026;5.468;2022-08-20T07:25:20;100999.78;;;17.11
53667;BMP280;39568;51.026;5.468;2022-08-20T07:27:50;100995.97;;;17.06
53667;BMP280;39568;51.026;5.468;2022-08-20T07:30:21;101006.63;;;17.12
53667;BMP280;39568;51.026;5.468;2022-08-20T07:33:07;101008.13;;;17.20
53667;BMP280;39568;51.026;5.468;2022-08-20T07:35:34;101002.41;;;17.24
53667;BMP280;39568;51.026;5.468;2022-08-20T07:38:02;101010.94;;;17.35
53667;BMP280;39568;51.026;5.468;2022-08-20T07:40:30;101020.25;;;17.34
53667;BMP280;39568;51.026;5.468;2022-08-20T07:43:00;101026.22;;;17.40
53667;BMP280;39568;51.026;5.468;2022-08-20T07:45:30;101027.41;;;17.52
53667;BMP280;39568;51.026;5.468;2022-08-20T07:48:07;101033.69;;;17.55
53667;BMP280;39568;51.026;5.468;2022-08-20T07:50:34;101040.91;;;17.39
53667;BMP280;39568;51.026;5.468;2022-08-20T07:53:01;101035.31;;;17.58
53667;BMP280;39568;51.026;5.468;2022-08-20T07:55:28;101038.31;;;17.47
53667;BMP280;39568;51.026;5.468;2022-08-20T07:57:57;101043.84;;;17.69
53667;BMP280;39568;51.026;5.468;2022-08-20T08:00:25;101053.84;;;17.90
53667;BMP280;39568;51.026;5.468;2022-08-20T08:02:51;101056.94;;;17.94
53667;BMP280;39568;51.026;5.468;2022-08-20T08:05:19;101050.59;;;18.19
53667;BMP280;39568;51.026;5.468;2022-08-20T08:07:46;101058.59;;;18.40
53667;BMP280;39568;51.026;5.468;2022-08-20T08:10:16;101060.50;;;18.24
53667;BMP280;39568;51.026;5.468;2022-08-20T08:12:47;101049.25;;;18.33
53667;BMP280;39568;51.026;5.468;2022-08-20T08:15:16;101037.41;;;18.36
53667;BMP280;39568;51.026;5.468;2022-08-20T08:17:45;101047.03;;;18.24
53667;BMP280;39568;51.026;5.468;2022-08-20T08:20:14;101035.28;;;18.07
53667;BMP280;39568;51.026;5.468;2022-08-20T08:22:47;101043.66;;;17.96
53667;BMP280;39568;51.026;5.468;2022-08-20T08:25:14;101044.94;;;18.02
53667;BMP280;39568;51.026;5.468;2022-08-20T08:27:41;101050.16;;;18.00
53667;BMP280;39568;51.026;5.468;2022-08-20T08:30:12;101052.41;;;18.24
53667;BMP280;39568;51.026;5.468;2022-08-20T08:32:45;101052.63;;;17.91
53667;BMP280;39568;51.026;5.468;2022-08-20T08:35:29;101067.97;;;17.83
53667;BMP280;39568;51.026;5.468;2022-08-20T08:37:58;101062.69;;;17.98
53667;BMP280;39568;51.026;5.468;2022-08-20T08:40:29;101060.72;;;17.98
53667;BMP280;39568;51.026;5.468;2022-08-20T08:43:00;101061.28;;;18.04
53667;BMP280;39568;51.026;5.468;2022-08-20T08:45:34;101066.19;;;18.13
53667;BMP280;39568;51.026;5.468;2022-08-20T08:48:08;101064.22;;;18.14
53667;BMP280;39568;51.026;5.468;2022-08-20T08:50:36;101072.84;;;18.20
53667;BMP280;39568;51.026;5.468;2022-08-20T08:53:15;101059.59;;;18.22
53667;BMP280;39568;51.026;5.468;2022-08-20T08:55:44;101062.75;;;18.41
53667;BMP280;39568;51.026;5.468;2022-08-20T08:58:10;101067.28;;;18.61
53667;BMP280;39568;51.026;5.468;2022-08-20T09:00:46;101072.78;;;18.91
53667;BMP280;39568;51.026;5.468;2022-08-20T09:03:18;101070.38;;;18.65
53667;BMP280;39568;51.026;5.468;2022-08-20T09:05:49;101072.28;;;18.42
53667;BMP280;39568;51.026;5.468;2022-08-20T09:08:22;101078.00;;;18.38
53667;BMP280;39568;51.026;5.468;2022-08-20T09:10:53;101071.84;;;18.30
53667;BMP280;39568;51.026;5.468;2022-08-20T09:13:26;101070.00;;;18.61
53667;BMP280;39568;51.026;5.468;2022-08-20T09:15:57;101078.06;;;18.61
53667;BMP280;39568;51.026;5.468;2022-08-20T09:18:23;101074.69;;;18.61
53667;BMP280;39568;51.026;5.468;2022-08-20T09:20:50;101071.38;;;18.47
53667;BMP280;39568;51.026;5.468;2022-08-20T09:23:19;101070.88;;;18.56
53667;BMP280;39568;51.026;5.468;2022-08-20T09:25:45;101069.09;;;18.66
53667;BMP280;39568;51.026;5.468;2022-08-20T09:28:12;101073.69;;;18.43
53667;BMP280;39568;51.026;5.468;2022-08-20T09:30:38;101074.44;;;18.51
53667;BMP280;39568;51.026;5.468;2022-08-20T09:33:05;101072.84;;;18.56
53667;BMP280;39568;51.026;5.468;2022-08-20T09:35:32;101078.47;;;18.65
53667;BMP280;39568;51.026;5.468;2022-08-20T09:37:59;101077.16;;;18.59
53667;BMP280;39568;51.026;5.468;2022-08-20T09:40:27;101072.41;;;18.95
53667;BMP280;39568;51.026;5.468;2022-08-20T09:42:54;101080.09;;;18.76
53667;BMP280;39568;51.026;5.468;2022-08-20T09:45:21;101080.75;;;19.19
53667;BMP280;39568;51.026;5.468;2022-08-20T09:47:48;101092.25;;;19.43
53667;BMP280;39568;51.026;5.468;2022-08-20T09:50:15;101085.75;;;19.38
53667;BMP280;39568;51.026;5.468;2022-08-20T09:52:46;101083.59;;;19.29
53667;BMP280;39568;51.026;5.468;2022-08-20T09:55:19;101082.91;;;19.44
53667;BMP280;39568;51.026;5.468;2022-08-20T09:57:47;101085.41;;;19.57
53667;BMP280;39568;51.026;5.468;2022-08-20T10:00:16;101087.22;;;19.47
53667;BMP280;39568;51.026;5.468;2022-08-20T10:02:45;101084.66;;;19.56
53667;BMP280;39568;51.026;5.468;2022-08-20T10:05:13;101085.03;;;19.83
53667;BMP280;39568;51.026;5.468;2022-08-20T10:07:40;101081.41;;;19.80
53667;BMP280;39568;51.026;5.468;2022-08-20T10:10:12;101085.84;;;20.08
53667;BMP280;39568;51.026;5.468;2022-08-20T10:12:39;101083.56;;;20.44
53667;BMP280;39568;51.026;5.468;2022-08-20T10:15:12;101087.34;;;20.41
53667;BMP280;39568;51.026;5.468;2022-08-20T10:17:40;101085.50;;;20.83
53667;BMP280;39568;51.026;5.468;2022-08-20T10:20:18;101086.22;;;21.09
53667;BMP280;39568;51.026;5.468;2022-08-20T10:22:45;101086.13;;;20.99
53667;BMP280;39568;51.026;5.468;2022-08-20T10:25:12;101084.00;;;21.56
53667;BMP280;39568;51.026;5.468;2022-08-20T10:27:41;101088.88;;;21.58
53667;BMP280;39568;51.026;5.468;2022-08-20T10:30:11;101098.03;;;21.45
53667;BMP280;39568;51.026;5.468;2022-08-20T10:32:38;101094.69;;;21.71
53667;BMP280;39568;51.026;5.468;2022-08-20T10:35:05;101095.50;;;21.64
53667;BMP280;39568;51.026;5.468;2022-08-20T10:37:35;101091.81;;;21.69
53667;BMP280;39568;51.026;5.468;2022-08-20T10:40:03;101095.53;;;22.78
53667;BMP280;39568;51.026;5.468;2022-08-20T10:42:30;101087.69;;;23.38
53667;BMP280;39568;51.026;5.468;2022-08-20T10:44:57;101098.66;;;23.30
53667;BMP280;39568;51.026;5.468;2022-08-20T10:47:26;101101.13;;;23.74
53667;BMP280;39568;51.026;5.468;2022-08-20T10:49:55;101089.28;;;24.38
53667;BMP280;39568;51.026;5.468;2022-08-20T10:52:24;101096.63;;;24.66
53667;BMP280;39568;51.026;5.468;2022-08-20T10:54:52;101102.47;;;24.23
53667;BMP280;39568;51.026;5.468;2022-08-20T10:57:21;101094.94;;;24.12
53667;BMP280;39568;51.026;5.468;2022-08-20T10:59:50;101096.28;;;25.56
53667;BMP280;39568;51.026;5.468;2022-08-20T11:02:17;101086.38;;;23.58
53667;BMP280;39568;51.026;5.468;2022-08-20T11:04:46;101083.19;;;24.49
53667;BMP280;39568;51.026;5.468;2022-08-20T11:07:16;101086.09;;;25.24
53667;BMP280;39568;51.026;5.468;2022-08-20T11:09:44;101083.03;;;26.30
53667;BMP280;39568;51.026;5.468;2022-08-20T11:14:39;101083.75;;;27.02
53667;BMP280;39568;51.026;5.468;2022-08-20T11:17:07;101077.50;;;26.99
53667;BMP280;39568;51.026;5.468;2022-08-20T11:19:38;101094.56;;;25.40
53667;BMP280;39568;51.026;5.468;2022-08-20T11:22:07;101083.41;;;25.36
53667;BMP280;39568;51.026;5.468;2022-08-20T11:24:34;101087.16;;;25.96
53667;BMP280;39568;51.026;5.468;2022-08-20T11:27:02;101088.91;;;25.92
53667;BMP280;39568;51.026;5.468;2022-08-20T11:29:29;101081.97;;;27.95
53667;BMP280;39568;51.026;5.468;2022-08-20T11:31:56;101077.22;;;27.82
53667;BMP280;39568;51.026;5.468;2022-08-20T11:34:22;101077.75;;;28.46
53667;BMP280;39568;51.026;5.468;2022-08-20T11:36:49;101080.50;;;28.33
53667;BMP280;39568;51.026;5.468;2022-08-20T11:39:20;101072.88;;;29.61
53667;BMP280;39568;51.026;5.468;2022-08-20T11:41:47;101076.94;;;31.86
53667;BMP280;39568;51.026;5.468;2022-08-20T11:44:13;101067.16;;;31.44
53667;BMP280;39568;51.026;5.468;2022-08-20T11:46:41;101066.91;;;32.16
53667;BMP280;39568;51.026;5.468;2022-08-20T11:49:17;101065.50;;;31.18
53667;BMP280;39568;51.026;5.468;2022-08-20T11:51:48;101066.09;;;31.51
53667;BMP280;39568;51.026;5.468;2022-08-20T11:54:15;101068.88;;;32.33
53667;BMP280;39568;51.026;5.468;2022-08-20T11:56:44;101066.16;;;30.28
53667;BMP280;39568;51.026;5.468;2022-08-20T11:59:12;101061.72;;;30.54
53667;BMP280;39568;51.026;5.468;2022-08-20T12:01:38;101059.56;;;31.06
53667;BMP280;39568;51.026;5.468;2022-08-20T12:04:05;101058.28;;;30.21
53667;BMP280;39568;51.026;5.468;2022-08-20T12:06:34;101052.59;;;29.53
53667;BMP280;39568;51.026;5.468;2022-08-20T12:09:02;101043.28;;;28.14
53667;BMP280;39568;51.026;5.468;2022-08-20T12:11:28;101055.59;;;29.90
53667;BMP280;39568;51.026;5.468;2022-08-20T12:13:59;101049.44;;;30.40
53667;BMP280;39568;51.026;5.468;2022-08-20T12:16:28;101049.53;;;30.59
53667;BMP280;39568;51.026;5.468;2022-08-20T12:18:55;101057.66;;;31.28
53667;BMP280;39568;51.026;5.468;2022-08-20T12:21:22;101047.22;;;31.83
53667;BMP280;39568;51.026;5.468;2022-08-20T12:23:49;101045.75;;;32.66
53667;BMP280;39568;51.026;5.468;2022-08-20T12:26:16;101044.59;;;31.87
53667;BMP280;39568;51.026;5.468;2022-08-20T12:28:43;101054.06;;;30.35
53667;BMP280;39568;51.026;5.468;2022-08-20T12:31:20;101054.91;;;30.40
53667;BMP280;39568;51.026;5.468;2022-08-20T12:33:47;101041.44;;;31.75
53667;BMP280;39568;51.026;5.468;2022-08-20T12:36:14;101039.38;;;33.58
53667;BMP280;39568;51.026;5.468;2022-08-20T12:38:41;101042.84;;;32.38
53667;BMP280;39568;51.026;5.468;2022-08-20T12:41:13;101032.81;;;33.71
53667;BMP280;39568;51.026;5.468;2022-08-20T12:43:40;101034.78;;;32.45
53667;BMP280;39568;51.026;5.468;2022-08-20T12:46:07;101037.88;;;31.51
53667;BMP280;39568;51.026;5.468;2022-08-20T12:48:36;101035.78;;;31.12
53667;BMP280;39568;51.026;5.468;2022-08-20T12:51:03;101037.59;;;28.37
53667;BMP280;39568;51.026;5.468;2022-08-20T12:53:31;101039.59;;;27.30
53667;BMP280;39568;51.026;5.468;2022-08-20T12:55:58;101043.19;;;26.96
53667;BMP280;39568;51.026;5.468;2022-08-20T12:58:27;101043.75;;;27.83
53667;BMP280;39568;51.026;5.468;2022-08-20T13:00:54;101036.44;;;28.69
53667;BMP280;39568;51.026;5.468;2022-08-20T13:03:21;101044.63;;;29.27
53667;BMP280;39568;51.026;5.468;2022-08-20T13:05:50;101035.78;;;29.76
53667;BMP280;39568;51.026;5.468;2022-08-20T13:08:17;101031.09;;;31.73
53667;BMP280;39568;51.026;5.468;2022-08-20T13:10:43;101036.25;;;31.44
53667;BMP280;39568;51.026;5.468;2022-08-20T13:13:10;101039.44;;;32.85
53667;BMP280;39568;51.026;5.468;2022-08-20T13:15:37;101040.31;;;31.82
53667;BMP280;39568;51.026;5.468;2022-08-20T13:18:05;101027.28;;;33.18
53667;BMP280;39568;51.026;5.468;2022-08-20T13:20:36;101029.03;;;32.37
53667;BMP280;39568;51.026;5.468;2022-08-20T13:23:04;101044.22;;;30.81
53667;BMP280;39568;51.026;5.468;2022-08-20T13:25:33;101039.16;;;31.11
53667;BMP280;39568;51.026;5.468;2022-08-20T13:28:03;101030.22;;;30.40
53667;BMP280;39568;51.026;5.468;2022-08-20T13:30:31;101025.09;;;30.15
53667;BMP280;39568;51.026;5.468;2022-08-20T13:32:58;101028.44;;;31.19
53667;BMP280;39568;51.026;5.468;2022-08-20T13:35:25;101031.31;;;31.03
53667;BMP280;39568;51.026;5.468;2022-08-20T13:37:52;101028.56;;;31.40
53667;BMP280;39568;51.026;5.468;2022-08-20T13:40:22;101017.31;;;31.34
53667;BMP280;39568;51.026;5.468;2022-08-20T13:42:50;101004.91;;;31.53
53667;BMP280;39568;51.026;5.468;2022-08-20T13:45:20;101011.47;;;31.63
53667;BMP280;39568;51.026;5.468;2022-08-20T13:47:51;101007.31;;;31.43
53667;BMP280;39568;51.026;5.468;2022-08-20T13:50:20;101010.22;;;30.55
53667;BMP280;39568;51.026;5.468;2022-08-20T13:52:48;101004.75;;;29.56
53667;BMP280;39568;51.026;5.468;2022-08-20T13:55:17;100997.91;;;28.09
53667;BMP280;39568;51.026;5.468;2022-08-20T13:57:49;101004.13;;;27.19
53667;BMP280;39568;51.026;5.468;2022-08-20T14:00:19;101008.53;;;27.37
53667;BMP280;39568;51.026;5.468;2022-08-20T14:02:46;100996.78;;;28.70
53667;BMP280;39568;51.026;5.468;2022-08-20T14:05:14;101011.19;;;29.78
53667;BMP280;39568;51.026;5.468;2022-08-20T14:07:42;101007.56;;;30.57
53667;BMP280;39568;51.026;5.468;2022-08-20T14:10:12;101018.72;;;30.61